createdAt,value
2023-04-14T00:01:23.722Z,7.37
2023-04-14T00:03:58.048Z,7.37
2023-04-14T00:06:31.013Z,7.36
2023-04-14T00:09:04.453Z,7.36
2023-04-14T00:11:37.314Z,7.34
2023-04-14T00:14:10.702Z,7.33
2023-04-14T00:16:44.568Z,7.31
2023-04-14T00:19:18.686Z,7.29
2023-04-14T00:21:51.441Z,7.28
2023-04-14T00:24:24.205Z,7.23
2023-04-14T00:26:57.347Z,7.22
2023-04-14T00:29:30.158Z,7.21
2023-04-14T00:32:02.998Z,7.20
2023-04-14T00:34:37.497Z,7.17
2023-04-14T00:37:10.577Z,7.16
2023-04-14T00:39:43.616Z,7.15
2023-04-14T00:42:16.865Z,7.17
2023-04-14T00:44:49.977Z,7.17
2023-04-14T00:47:24.042Z,7.18
2023-04-14T00:49:58.229Z,7.18
2023-04-14T00:52:33.049Z,7.18
2023-04-14T00:55:06.764Z,7.19
2023-04-14T00:57:40.172Z,7.21
2023-04-14T01:00:13.851Z,7.23
2023-04-14T01:02:46.787Z,7.25
2023-04-14T01:05:21.560Z,7.27
2023-04-14T01:07:54.478Z,7.29
2023-04-14T01:10:29.861Z,7.29
2023-04-14T01:13:09.698Z,7.32
2023-04-14T01:15:45.032Z,7.36
2023-04-14T01:18:23.467Z,7.37
2023-04-14T01:21:00.548Z,7.40
2023-04-14T01:23:37.026Z,7.43
2023-04-14T01:26:28.133Z,7.47
2023-04-14T01:29:08.999Z,7.50
2023-04-14T01:31:46.131Z,7.52
2023-04-14T01:34:22.054Z,7.57
2023-04-14T01:36:56.685Z,7.60
2023-04-14T01:39:33.007Z,7.65
2023-04-14T01:42:07.791Z,7.68
2023-04-14T01:44:41.650Z,7.72
2023-04-14T01:47:18.927Z,7.76
2023-04-14T01:49:53.871Z,7.78
2023-04-14T01:52:27.835Z,7.81
2023-04-14T01:55:05.800Z,7.84
2023-04-14T01:57:39.649Z,7.88
2023-04-14T02:00:13.705Z,7.90
2023-04-14T02:02:49.459Z,7.94
2023-04-14T02:05:23.449Z,7.95
2023-04-14T02:07:56.721Z,7.98
2023-04-14T02:10:30.411Z,8.02
2023-04-14T02:13:04.144Z,8.06
2023-04-14T02:15:37.125Z,8.09
2023-04-14T02:18:11.444Z,8.10
2023-04-14T02:20:45.772Z,8.11
2023-04-14T02:23:18.500Z,8.16
2023-04-14T02:25:53.940Z,8.18
2023-04-14T02:28:33.607Z,8.21
2023-04-14T02:31:08.786Z,8.20
2023-04-14T02:33:45.050Z,8.20
2023-04-14T02:36:19.205Z,8.23
2023-04-14T02:38:56.688Z,8.24
2023-04-14T02:41:30.224Z,8.24
2023-04-14T02:44:05.135Z,8.25
2023-04-14T02:46:40.590Z,8.26
2023-04-14T02:49:16.156Z,8.31
2023-04-14T02:51:49.770Z,8.30
2023-04-14T02:54:24.182Z,8.30
2023-04-14T02:56:58.443Z,8.30
2023-04-14T02:59:32.573Z,8.30
2023-04-14T03:02:06.389Z,8.32
2023-04-14T03:04:42.235Z,8.32
2023-04-14T03:07:16.047Z,8.33
2023-04-14T03:09:50.704Z,8.35
2023-04-14T03:12:25.557Z,8.35
2023-04-14T03:14:59.435Z,8.34
2023-04-14T03:17:33.784Z,8.36
2023-04-14T03:20:09.340Z,8.35
2023-04-14T03:22:44.218Z,8.36
2023-04-14T03:25:17.007Z,8.36
2023-04-14T03:27:51.038Z,8.36
2023-04-14T03:30:25.326Z,8.36
2023-04-14T03:33:00.773Z,8.37
2023-04-14T03:35:35.494Z,8.36
2023-04-14T03:38:09.218Z,8.34
2023-04-14T03:40:44.351Z,8.33
2023-04-14T03:43:20.253Z,8.33
2023-04-14T03:45:52.936Z,8.32
2023-04-14T03:48:29.902Z,8.29
2023-04-14T03:51:06.134Z,8.28
2023-04-14T03:53:40.896Z,8.24
2023-04-14T03:56:14.527Z,8.21
2023-04-14T03:58:49.554Z,8.16
2023-04-14T04:01:26.138Z,8.14
2023-04-14T04:04:00.956Z,8.09
2023-04-14T04:06:37.102Z,8.02
2023-04-14T04:09:12.846Z,7.96
2023-04-14T04:11:47.608Z,7.92
2023-04-14T04:14:21.899Z,7.84
2023-04-14T04:16:56.470Z,7.80
2023-04-14T04:19:29.894Z,7.73
2023-04-14T04:22:04.759Z,7.65
2023-04-14T04:24:40.360Z,7.58
2023-04-14T04:27:26.690Z,7.53
2023-04-14T04:30:01.321Z,7.45
2023-04-14T04:32:34.065Z,7.39
2023-04-14T04:35:07.418Z,7.32
2023-04-14T04:37:43.707Z,7.27
2023-04-14T04:40:16.792Z,7.20
2023-04-14T04:42:49.567Z,7.15
2023-04-14T04:45:32.774Z,7.09
2023-04-14T04:48:05.753Z,7.03
2023-04-14T04:50:38.587Z,6.97
2023-04-14T04:53:14.143Z,6.94
2023-04-14T04:55:46.999Z,6.90
2023-04-14T04:58:19.786Z,6.85
2023-04-14T05:00:54.503Z,6.79
2023-04-14T05:03:27.794Z,6.75
2023-04-14T05:06:00.629Z,6.72
2023-04-14T05:08:35.014Z,6.68
2023-04-14T05:11:07.745Z,6.63
2023-04-14T05:13:40.513Z,6.61
2023-04-14T05:16:14.789Z,6.58
2023-04-14T05:18:47.535Z,6.56
2023-04-14T05:21:20.449Z,6.53
2023-04-14T05:23:54.693Z,6.49
2023-04-14T05:26:48.994Z,6.49
2023-04-14T05:29:20.360Z,6.49
2023-04-14T05:31:52.993Z,6.49
2023-04-14T05:34:25.720Z,6.48
2023-04-14T05:36:58.373Z,6.50
2023-04-14T05:39:33.127Z,6.54
2023-04-14T05:42:06.122Z,6.55
2023-04-14T05:44:39.316Z,6.61
2023-04-14T05:47:12.001Z,6.70
2023-04-14T05:49:45.120Z,6.77
2023-04-14T05:52:18.027Z,6.88
2023-04-14T05:54:52.190Z,7.00
2023-04-14T05:57:24.894Z,7.12
2023-04-14T05:59:58.415Z,7.26
2023-04-14T06:02:31.301Z,7.40
2023-04-14T06:05:06.968Z,7.57
2023-04-14T06:07:42.062Z,7.76
2023-04-14T06:10:16.409Z,7.89
2023-04-14T06:12:49.234Z,8.07
2023-04-14T06:15:21.909Z,8.20
2023-04-14T06:17:54.746Z,8.33
2023-04-14T06:20:27.444Z,8.47
2023-04-14T06:23:00.971Z,8.60
2023-04-14T06:25:35.355Z,8.74
2023-04-14T06:28:08.185Z,8.85
2023-04-14T06:30:41.283Z,8.97
2023-04-14T06:33:13.954Z,9.11
2023-04-14T06:35:46.905Z,9.22
2023-04-14T06:38:20.400Z,9.32
2023-04-14T06:40:54.674Z,9.44
2023-04-14T06:43:28.962Z,9.55
2023-04-14T06:46:01.897Z,9.65
2023-04-14T06:48:34.577Z,9.76
2023-04-14T06:51:10.603Z,9.88
2023-04-14T06:53:43.757Z,9.99
2023-04-14T06:56:17.836Z,10.12
2023-04-14T06:58:50.591Z,10.24
2023-04-14T07:01:23.936Z,10.37
2023-04-14T07:03:56.969Z,10.51
2023-04-14T07:06:29.655Z,10.66
2023-04-14T07:09:02.359Z,10.75
2023-04-14T07:11:36.433Z,10.91
2023-04-14T07:14:09.098Z,11.02
2023-04-14T07:16:41.727Z,11.12
2023-04-14T07:19:14.512Z,11.22
2023-04-14T07:21:47.265Z,11.28
2023-04-14T07:24:20.111Z,11.33
2023-04-14T07:26:54.270Z,11.37
2023-04-14T07:29:27.426Z,11.41
2023-04-14T07:32:00.384Z,11.46
2023-04-14T07:34:33.936Z,11.54
2023-04-14T07:37:06.750Z,11.59
2023-04-14T07:39:39.818Z,11.65
2023-04-14T07:42:13.899Z,11.73
2023-04-14T07:44:46.872Z,11.80
2023-04-14T07:47:19.579Z,11.89
2023-04-14T07:49:53.198Z,11.98
2023-04-14T07:52:25.983Z,12.07
2023-04-14T07:54:58.682Z,12.14
2023-04-14T07:57:34.312Z,12.25
2023-04-14T08:00:09.668Z,12.34
2023-04-14T08:02:42.469Z,12.42
2023-04-14T08:05:15.297Z,12.53
2023-04-14T08:07:49.571Z,12.61
2023-04-14T08:10:22.427Z,12.72
2023-04-14T08:12:56.561Z,12.83
2023-04-14T08:15:29.339Z,12.95
2023-04-14T08:18:02.105Z,13.09
2023-04-14T08:20:34.852Z,13.23
2023-04-14T08:23:07.450Z,13.39
2023-04-14T08:25:40.153Z,13.54
2023-04-14T08:28:14.245Z,13.69
2023-04-14T08:30:47.771Z,13.82
2023-04-14T08:33:20.457Z,13.95
2023-04-14T08:35:59.331Z,14.12
2023-04-14T08:38:33.217Z,14.28
2023-04-14T08:41:08.586Z,14.44
2023-04-14T08:43:42.625Z,14.62
2023-04-14T08:46:16.659Z,14.79
2023-04-14T08:48:50.692Z,14.97
2023-04-14T08:51:28.381Z,15.15
2023-04-14T08:54:02.354Z,15.35
2023-04-14T08:56:35.845Z,15.51
2023-04-14T08:59:11.409Z,15.65
2023-04-14T09:01:44.614Z,15.76
2023-04-14T09:04:17.630Z,15.85
2023-04-14T09:06:50.454Z,15.94
2023-04-14T09:09:23.651Z,16.01
2023-04-14T09:11:56.465Z,16.09
2023-04-14T09:14:30.540Z,16.15
2023-04-14T09:17:03.322Z,16.23
2023-04-14T09:19:35.918Z,16.30
2023-04-14T09:22:08.753Z,16.36
2023-04-14T09:24:41.564Z,16.39
2023-04-14T09:27:14.523Z,16.41
2023-04-14T09:29:49.444Z,16.40
2023-04-14T09:32:23.092Z,16.36
2023-04-14T09:34:57.782Z,16.31
2023-04-14T09:37:42.436Z,16.23
2023-04-14T09:40:28.675Z,16.14
2023-04-14T09:43:02.080Z,16.05
2023-04-14T09:45:45.915Z,15.95
2023-04-14T09:48:18.578Z,15.84
2023-04-14T09:51:01.038Z,15.72
2023-04-14T09:53:34.399Z,15.60
2023-04-14T09:56:08.409Z,15.46
2023-04-14T09:58:42.212Z,15.34
2023-04-14T10:01:17.919Z,15.23
2023-04-14T10:03:51.169Z,15.12
2023-04-14T10:06:24.471Z,15.05
2023-04-14T10:08:57.539Z,15.02
2023-04-14T10:11:32.809Z,15.01
2023-04-14T10:14:06.732Z,15.01
2023-04-14T10:16:41.542Z,15.02
2023-04-14T10:19:14.751Z,15.04
2023-04-14T10:21:47.444Z,15.05
2023-04-14T10:24:21.248Z,15.13
2023-04-14T10:26:54.608Z,15.20
2023-04-14T10:29:27.798Z,15.29
2023-04-14T10:32:05.430Z,15.39
2023-04-14T10:34:40.544Z,15.51
2023-04-14T10:37:15.086Z,15.61
2023-04-14T10:39:55.185Z,15.72
2023-04-14T10:42:30.976Z,15.81
2023-04-14T10:45:06.095Z,15.93
2023-04-14T10:47:42.569Z,16.02
2023-04-14T10:50:18.131Z,16.14
2023-04-14T10:52:52.135Z,16.27
2023-04-14T10:55:26.057Z,16.39
2023-04-14T10:58:04.797Z,16.54
2023-04-14T11:00:39.038Z,16.65
2023-04-14T11:03:13.935Z,16.79
2023-04-14T11:05:49.360Z,16.90
2023-04-14T11:08:26.411Z,17.02
2023-04-14T11:11:02.871Z,17.12
2023-04-14T11:13:38.341Z,17.20
2023-04-14T11:16:11.385Z,17.26
2023-04-14T11:18:46.522Z,17.30
2023-04-14T11:21:19.222Z,17.34
2023-04-14T11:23:52.020Z,17.36
2023-04-14T11:26:24.935Z,17.36
2023-04-14T11:28:57.840Z,17.37
2023-04-14T11:31:31.428Z,17.37
2023-04-14T11:34:07.077Z,17.33
2023-04-14T11:36:40.134Z,17.30
2023-04-14T11:39:16.382Z,17.23
2023-04-14T11:41:52.475Z,17.17
2023-04-14T11:44:25.938Z,17.13
2023-04-14T11:46:58.807Z,17.09
2023-04-14T11:49:37.078Z,17.04
2023-04-14T11:52:09.884Z,17.00
2023-04-14T11:54:42.625Z,16.96
2023-04-14T11:57:17.561Z,16.96
2023-04-14T11:59:50.776Z,16.91
2023-04-14T12:02:23.759Z,16.86
2023-04-14T12:04:58.825Z,16.82
2023-04-14T12:07:32.238Z,16.79
2023-04-14T12:10:05.670Z,16.76
2023-04-14T12:12:38.455Z,16.70
2023-04-14T12:15:11.630Z,16.66
2023-04-14T12:17:44.459Z,16.62
2023-04-14T12:20:18.834Z,16.59
2023-04-14T12:22:52.235Z,16.60
2023-04-14T12:25:24.966Z,16.59
2023-04-14T12:27:57.822Z,16.62
2023-04-14T12:30:30.455Z,16.65
2023-04-14T12:33:07.702Z,16.71
2023-04-14T12:35:41.863Z,16.75
2023-04-14T12:38:15.118Z,16.82
2023-04-14T12:40:48.540Z,16.88
2023-04-14T12:43:28.639Z,16.95
2023-04-14T12:46:03.745Z,17.05
2023-04-14T12:48:40.320Z,17.14
2023-04-14T12:51:15.107Z,17.20
2023-04-14T12:53:50.206Z,17.25
2023-04-14T12:56:23.589Z,17.30
2023-04-14T12:58:56.226Z,17.33
2023-04-14T13:01:28.943Z,17.37
2023-04-14T13:04:01.823Z,17.41
2023-04-14T13:06:38.903Z,17.45
2023-04-14T13:09:12.000Z,17.48
2023-04-14T13:11:44.611Z,17.50
2023-04-14T13:14:17.628Z,17.52
2023-04-14T13:16:50.371Z,17.52
2023-04-14T13:19:23.336Z,17.51
2023-04-14T13:21:57.498Z,17.47
2023-04-14T13:24:30.206Z,17.45
2023-04-14T13:27:03.106Z,17.40
2023-04-14T13:29:36.265Z,17.34
2023-04-14T13:32:09.802Z,17.26
2023-04-14T13:34:43.628Z,17.20
2023-04-14T13:37:18.113Z,17.13
2023-04-14T13:39:50.986Z,17.06
2023-04-14T13:42:23.592Z,17.00
2023-04-14T13:44:56.500Z,16.96
2023-04-14T13:47:29.243Z,16.94
2023-04-14T13:50:02.571Z,16.92
2023-04-14T13:52:36.882Z,16.91
2023-04-14T13:55:10.740Z,16.92
2023-04-14T13:57:43.393Z,16.95
2023-04-14T14:00:16.466Z,16.98
2023-04-14T14:02:49.656Z,17.04
2023-04-14T14:05:22.435Z,17.09
2023-04-14T14:07:56.976Z,17.15
2023-04-14T14:10:29.731Z,17.20
2023-04-14T14:13:02.610Z,17.25
2023-04-14T14:15:35.947Z,17.31
2023-04-14T14:18:08.752Z,17.37
2023-04-14T14:20:41.984Z,17.40
2023-04-14T14:23:16.251Z,17.44
2023-04-14T14:25:50.245Z,17.48
2023-04-14T14:28:23.139Z,17.53
2023-04-14T14:30:56.132Z,17.56
2023-04-14T14:33:28.970Z,17.60
2023-04-14T14:36:01.751Z,17.65
2023-04-14T14:38:35.793Z,17.68
2023-04-14T14:41:08.651Z,17.73
2023-04-14T14:43:41.276Z,17.75
2023-04-14T14:46:13.991Z,17.78
2023-04-14T14:48:46.688Z,17.80
2023-04-14T14:51:19.465Z,17.83
2023-04-14T14:54:01.516Z,17.85
2023-04-14T14:56:41.293Z,17.88
2023-04-14T14:59:14.284Z,17.88
2023-04-14T15:01:47.417Z,17.88
2023-04-14T15:04:20.360Z,17.86
2023-04-14T15:06:53.115Z,17.86
2023-04-14T15:09:27.240Z,17.85
2023-04-14T15:12:00.071Z,17.84
2023-04-14T15:14:32.740Z,17.82
2023-04-14T15:17:05.427Z,17.80
2023-04-14T15:19:38.256Z,17.79
2023-04-14T15:22:10.936Z,17.76
2023-04-14T15:24:44.978Z,17.74
2023-04-14T15:27:17.609Z,17.72
2023-04-14T15:29:50.586Z,17.69
2023-04-14T15:32:26.570Z,17.64
2023-04-14T15:34:59.265Z,17.60
2023-04-14T15:37:32.268Z,17.54
2023-04-14T15:40:06.958Z,17.48
2023-04-14T15:42:39.610Z,17.42
2023-04-14T15:45:12.679Z,17.33
2023-04-14T15:47:46.295Z,17.23
2023-04-14T15:50:19.312Z,17.13
2023-04-14T15:52:52.196Z,17.02
2023-04-14T15:55:26.545Z,16.91
2023-04-14T15:57:59.655Z,16.78
2023-04-14T16:00:32.821Z,16.69
2023-04-14T16:03:05.702Z,16.56
2023-04-14T16:05:38.480Z,16.46
2023-04-14T16:08:11.429Z,16.36
2023-04-14T16:10:45.560Z,16.25
2023-04-14T16:13:18.253Z,16.16
2023-04-14T16:15:50.981Z,16.08
2023-04-14T16:18:23.916Z,16.00
2023-04-14T16:20:56.585Z,15.93
2023-04-14T16:23:29.502Z,15.84
2023-04-14T16:26:04.051Z,15.77
2023-04-14T16:28:36.866Z,15.70
2023-04-14T16:31:09.534Z,15.64
2023-04-14T16:33:42.281Z,15.57
2023-04-14T16:36:15.013Z,15.51
2023-04-14T16:38:49.258Z,15.45
2023-04-14T16:41:23.469Z,15.38
2023-04-14T16:43:56.166Z,15.33
2023-04-14T16:46:28.861Z,15.25
2023-04-14T16:49:01.935Z,15.21
2023-04-14T16:51:34.766Z,15.15
2023-04-14T16:54:07.551Z,15.08
2023-04-14T16:56:41.716Z,15.02
2023-04-14T16:59:14.372Z,14.95
2023-04-14T17:01:47.173Z,14.89
2023-04-14T17:04:20.262Z,14.82
2023-04-14T17:06:53.181Z,14.76
2023-04-14T17:09:26.173Z,14.69
2023-04-14T17:12:00.584Z,14.62
2023-04-14T17:14:34.427Z,14.57
2023-04-14T17:17:07.871Z,14.50
2023-04-14T17:19:40.932Z,14.44
2023-04-14T17:22:15.254Z,14.35
2023-04-14T17:24:47.918Z,14.28
2023-04-14T17:27:22.308Z,14.25
2023-04-14T17:29:55.131Z,14.17
2023-04-14T17:32:28.031Z,14.11
2023-04-14T17:35:00.817Z,14.06
2023-04-14T17:37:33.953Z,13.98
2023-04-14T17:40:08.212Z,13.92
2023-04-14T17:42:42.344Z,13.87
2023-04-14T17:45:21.539Z,13.80
2023-04-14T17:47:54.779Z,13.74
2023-04-14T17:50:27.682Z,13.66
2023-04-14T17:53:00.415Z,13.59
2023-04-14T17:55:33.152Z,13.53
2023-04-14T17:58:07.133Z,13.45
2023-04-14T18:00:40.227Z,13.37
2023-04-14T18:03:14.531Z,13.31
2023-04-14T18:05:48.396Z,13.21
2023-04-14T18:08:21.051Z,13.15
2023-04-14T18:10:53.688Z,13.05
2023-04-14T18:13:28.420Z,12.97
2023-04-14T18:16:01.400Z,12.90
2023-04-14T18:18:34.148Z,12.78
2023-04-14T18:21:08.040Z,12.68
2023-04-14T18:23:40.748Z,12.60
2023-04-14T18:28:51.636Z,12.36
2023-04-14T18:31:25.243Z,12.27
2023-04-14T18:34:02.900Z,12.15
2023-04-14T18:36:36.562Z,12.04
2023-04-14T18:39:09.177Z,11.92
2023-04-14T18:41:41.884Z,11.80
2023-04-14T18:44:17.058Z,11.69
2023-04-14T18:46:49.915Z,11.60
2023-04-14T18:49:22.809Z,11.49
2023-04-14T18:51:55.876Z,11.38
2023-04-14T18:54:28.604Z,11.28
2023-04-14T18:57:01.321Z,11.19
2023-04-14T18:59:36.176Z,11.09
2023-04-14T19:02:13.593Z,11.01
2023-04-14T19:04:46.615Z,10.90
2023-04-14T19:07:19.567Z,10.82
2023-04-14T19:09:53.031Z,10.74
2023-04-14T19:12:28.617Z,10.66
2023-04-14T19:15:03.545Z,10.57
2023-04-14T19:17:36.462Z,10.51
2023-04-14T19:20:09.743Z,10.43
2023-04-14T19:22:42.445Z,10.38
2023-04-14T19:25:15.607Z,10.32
2023-04-14T19:27:48.287Z,10.27
2023-04-14T19:30:22.887Z,10.20
2023-04-14T19:32:55.561Z,10.16
2023-04-14T19:35:28.263Z,10.12
2023-04-14T19:38:01.267Z,10.09
2023-04-14T19:40:34.151Z,10.03
2023-04-14T19:43:07.082Z,10.02
2023-04-14T19:45:49.690Z,9.98
2023-04-14T19:48:24.311Z,9.94
2023-04-14T19:50:57.920Z,9.92
2023-04-14T19:53:30.861Z,9.89
2023-04-14T19:56:05.568Z,9.84
2023-04-14T19:58:38.258Z,9.83
2023-04-14T20:01:12.967Z,9.79
2023-04-14T20:04:06.328Z,9.77
2023-04-14T20:06:39.475Z,9.74
2023-04-14T20:09:12.291Z,9.71
2023-04-14T20:11:45.646Z,9.68
2023-04-14T20:14:18.459Z,9.65
2023-04-14T20:16:52.554Z,9.63
2023-04-14T20:19:25.279Z,9.61
2023-04-14T20:21:58.061Z,9.58
2023-04-14T20:24:30.785Z,9.55
2023-04-14T20:27:04.372Z,9.53
2023-04-14T20:29:37.116Z,9.49
2023-04-14T20:32:11.544Z,9.46
2023-04-14T20:34:44.303Z,9.43
2023-04-14T20:37:18.270Z,9.39
2023-04-14T20:39:52.660Z,9.36
2023-04-14T20:42:26.096Z,9.32
2023-04-14T20:44:58.933Z,9.29
2023-04-14T20:47:33.184Z,9.27
2023-04-14T20:50:06.578Z,9.22
2023-04-14T20:52:39.737Z,9.20
2023-04-14T20:55:13.537Z,9.17
2023-04-14T20:57:46.504Z,9.16
2023-04-14T21:00:19.232Z,9.13
2023-04-14T21:02:53.866Z,9.10
2023-04-14T21:05:26.924Z,9.07
2023-04-14T21:07:59.752Z,9.06
2023-04-14T21:10:32.438Z,9.04
2023-04-14T21:15:40.331Z,9.04
2023-04-14T21:15:59.807Z,9.01
2023-04-14T21:18:34.114Z,8.98
2023-04-14T21:21:06.796Z,8.96
2023-04-14T21:23:39.503Z,8.95
2023-04-14T21:26:13.324Z,8.94
2023-04-14T21:28:46.166Z,8.91
2023-04-14T21:31:19.027Z,8.89
2023-04-14T21:33:53.082Z,8.86
2023-04-14T21:36:26.095Z,8.84
2023-04-14T21:38:58.799Z,8.82
2023-04-14T21:41:32.628Z,8.79
2023-04-14T21:44:05.257Z,8.75
2023-04-14T21:46:37.906Z,8.73
2023-04-14T21:49:12.497Z,8.69
2023-04-14T21:51:45.528Z,8.65
2023-04-14T21:54:18.212Z,8.61
2023-04-14T21:56:51.361Z,8.56
2023-04-14T21:59:24.352Z,8.52
2023-04-14T22:01:57.563Z,8.50
2023-04-14T22:04:36.507Z,8.45
2023-04-14T22:07:09.526Z,8.44
2023-04-14T22:09:44.231Z,8.41
2023-04-14T22:12:17.155Z,8.38
2023-04-14T22:14:49.928Z,8.32
2023-04-14T22:17:22.873Z,8.31
2023-04-14T22:19:58.184Z,8.26
2023-04-14T22:22:30.898Z,8.25
2023-04-14T22:25:03.993Z,8.22
2023-04-14T22:27:37.010Z,8.18
2023-04-14T22:30:10.896Z,8.16
2023-04-14T22:32:43.608Z,8.13
2023-04-14T22:35:17.596Z,8.10
2023-04-14T22:37:50.602Z,8.08
2023-04-14T22:40:23.338Z,8.04
2023-04-14T22:42:56.347Z,7.99
2023-04-14T22:45:29.065Z,7.95
2023-04-14T22:48:02.459Z,7.91
2023-04-14T22:50:37.108Z,7.88
2023-04-14T22:53:09.806Z,7.82
2023-04-14T22:55:43.501Z,7.79
2023-04-14T22:58:18.866Z,7.75
2023-04-14T23:00:51.868Z,7.69
2023-04-14T23:03:24.703Z,7.64
2023-04-14T23:06:00.122Z,7.59
2023-04-14T23:08:33.014Z,7.53
2023-04-14T23:11:06.137Z,7.47
2023-04-14T23:13:38.963Z,7.41
2023-04-14T23:16:11.841Z,7.33
2023-04-14T23:18:49.495Z,7.28
2023-04-14T23:21:23.624Z,7.20
2023-04-14T23:23:56.533Z,7.15
2023-04-14T23:26:29.569Z,7.08
2023-04-14T23:29:02.803Z,7.00
2023-04-14T23:31:35.957Z,6.94
2023-04-14T23:34:11.076Z,6.87
2023-04-14T23:36:46.563Z,6.81
2023-04-14T23:39:19.699Z,6.73
2023-04-14T23:41:52.405Z,6.68
2023-04-14T23:44:25.615Z,6.63
2023-04-14T23:46:58.339Z,6.56
2023-04-14T23:49:34.422Z,6.51
2023-04-14T23:52:09.629Z,6.44
2023-04-14T23:54:42.710Z,6.38
2023-04-14T23:57:15.381Z,6.34
2023-04-14T23:59:48.083Z,6.27
